Time;durP1;ratioP1;P1;durP2;ratioP2;P2;SDS_P1;SDS_P2;PMS_P1;PMS_P2;Temp;Humidity;BMP_temperature;BMP_pressure;BME280_temperature;BME280_humidity;BME280_pressure;Samples;Min_cycle;Max_cycle;Signal;HPM_P1;HPM_P2
2021/11/09 00:00:22;;;;;;;1.15;1.05;;;13.50;79.60;;;;;;5114278;28;20043;-65
2021/11/09 00:02:48;;;;;;;1.42;1.20;;;13.50;79.60;;;;;;5123745;28;20047;-68
2021/11/09 00:05:18;;;;;;;1.63;1.20;;;13.60;79.60;;;;;;5133319;28;20043;-66
2021/11/09 00:07:58;;;;;;;2.08;1.58;;;13.50;79.60;;;;;;5133022;28;20455;-69
2021/11/09 00:10:26;;;;;;;1.40;1.15;;;13.60;79.60;;;;;;5113422;28;20036;-67
2021/11/09 00:12:55;;;;;;;2.55;1.40;;;13.60;79.60;;;;;;5132924;28;20501;-66
2021/11/09 00:15:23;;;;;;;2.20;1.63;;;13.50;79.60;;;;;;5132982;28;20046;-69
2021/11/09 00:17:53;;;;;;;2.65;1.52;;;13.50;79.60;;;;;;5133098;28;20046;-69
2021/11/09 00:20:21;;;;;;;2.13;1.30;;;13.60;79.60;;;;;;5132573;28;20080;-68
2021/11/09 00:22:47;;;;;;;2.25;1.55;;;13.60;79.60;;;;;;5133139;28;20143;-69
2021/11/09 00:25:14;;;;;;;1.85;1.40;;;13.50;79.60;;;;;;5132397;28;20482;-69
2021/11/09 00:27:41;;;;;;;1.85;1.25;;;13.50;79.60;;;;;;5132907;28;20058;-69
2021/11/09 00:30:09;;;;;;;2.13;1.58;;;13.50;79.50;;;;;;5132831;28;20043;-63
2021/11/09 00:32:34;;;;;;;2.25;1.40;;;13.60;79.60;;;;;;5132643;28;20047;-61
2021/11/09 00:35:00;;;;;;;2.00;1.20;;;13.50;79.60;;;;;;5133067;28;20482;-65
2021/11/09 00:37:26;;;;;;;3.33;1.60;;;13.50;79.50;;;;;;5132826;28;20126;-59
2021/11/09 00:39:53;;;;;;;1.40;1.27;;;13.50;79.50;;;;;;5132864;28;20475;-57
2021/11/09 00:42:19;;;;;;;1.80;1.35;;;13.40;79.40;;;;;;5132431;28;20081;-60
2021/11/09 00:44:45;;;;;;;2.45;1.30;;;13.50;79.50;;;;;;5132713;28;20043;-66
2021/11/09 00:47:11;;;;;;;1.00;0.93;;;13.50;79.50;;;;;;5133131;28;20039;-67
2021/11/09 00:49:37;;;;;;;2.45;1.60;;;13.60;79.60;;;;;;5114409;28;20039;-63
2021/11/09 00:52:04;;;;;;;1.35;1.13;;;13.60;79.60;;;;;;5132817;28;20104;-65
2021/11/09 00:54:30;;;;;;;1.42;1.20;;;13.50;79.50;;;;;;5133303;28;20041;-66
2021/11/09 00:56:56;;;;;;;1.70;1.50;;;13.50;79.50;;;;;;5132236;28;20493;-63
2021/11/09 00:59:22;;;;;;;2.13;1.63;;;13.50;79.50;;;;;;5132920;28;20059;-68
2021/11/09 01:01:48;;;;;;;3.13;1.48;;;13.50;79.50;;;;;;5132881;28;20051;-68
2021/11/09 01:04:13;;;;;;;1.70;1.42;;;13.50;79.50;;;;;;5135572;27;20471;-68
2021/11/09 01:06:39;;;;;;;1.38;1.15;;;13.50;79.50;;;;;;5136296;27;20372;-68
2021/11/09 01:09:06;;;;;;;2.10;1.20;;;13.50;79.50;;;;;;5136159;27;20090;-64
2021/11/09 01:11:32;;;;;;;2.33;1.73;;;13.50;79.50;;;;;;5136121;27;20047;-69
2021/11/09 01:13:58;;;;;;;1.98;1.23;;;13.50;79.50;;;;;;5135854;27;20157;-67
2021/11/09 01:16:24;;;;;;;2.90;1.48;;;13.50;79.50;;;;;;5136100;27;20043;-68
2021/11/09 01:18:53;;;;;;;2.30;1.33;;;13.50;79.50;;;;;;5136075;27;20330;-68
2021/11/09 01:21:20;;;;;;;2.20;1.35;;;13.50;79.50;;;;;;5136179;27;20452;-67
2021/11/09 01:23:49;;;;;;;1.67;1.45;;;13.50;79.50;;;;;;5135962;27;20069;-68
2021/11/09 01:26:16;;;;;;;1.45;1.20;;;13.60;79.60;;;;;;5134853;27;20471;-67
2021/11/09 01:28:43;;;;;;;2.42;1.55;;;13.50;79.50;;;;;;5135478;27;20092;-65
2021/11/09 01:31:10;;;;;;;1.58;1.10;;;13.50;79.50;;;;;;5135686;27;20047;-68
2021/11/09 01:33:37;;;;;;;1.15;1.02;;;13.50;79.50;;;;;;5135577;27;20047;-67
2021/11/09 01:36:04;;;;;;;2.22;1.48;;;13.50;79.50;;;;;;5135630;27;20046;-69
2021/11/09 01:38:32;;;;;;;1.75;1.50;;;13.50;79.50;;;;;;5135759;27;20083;-67
2021/11/09 01:40:58;;;;;;;1.98;1.23;;;13.50;79.50;;;;;;5135613;27;20541;-64
2021/11/09 01:43:26;;;;;;;2.90;1.48;;;13.50;79.50;;;;;;5135232;27;20080;-69
2021/11/09 01:45:52;;;;;;;2.00;1.27;;;13.40;79.40;;;;;;5134810;27;20046;-69
2021/11/09 01:48:19;;;;;;;1.83;1.30;;;13.50;79.50;;;;;;5135481;27;20412;-64
2021/11/09 01:50:49;;;;;;;1.50;1.40;;;13.50;79.50;;;;;;5135560;27;20044;-67
2021/11/09 01:53:15;;;;;;;1.80;1.20;;;13.50;79.40;;;;;;5135534;27;20043;-67
2021/11/09 01:55:41;;;;;;;1.40;1.30;;;13.50;79.50;;;;;;5135176;27;20080;-68
2021/11/09 01:58:09;;;;;;;3.10;1.70;;;13.50;80.10;;;;;;5135081;27;20050;-69
2021/11/09 02:00:58;;;;;;;2.70;1.33;;;13.50;79.40;;;;;;5115825;27;20043;-67
2021/11/09 02:03:25;;;;;;;1.50;1.20;;;13.50;79.50;;;;;;5134547;27;20058;-67
2021/11/09 02:05:52;;;;;;;1.88;1.25;;;13.40;79.40;;;;;;5135386;27;20062;-67
2021/11/09 02:08:19;;;;;;;1.30;1.20;;;13.50;79.50;;;;;;5134494;27;20043;-68
2021/11/09 02:10:46;;;;;;;1.42;1.20;;;13.50;79.40;;;;;;5134988;27;20114;-69
2021/11/09 02:13:13;;;;;;;1.55;1.40;;;13.50;79.50;;;;;;5135026;27;20123;-68
2021/11/09 02:15:40;;;;;;;1.55;1.30;;;13.50;79.50;;;;;;5114958;27;20096;-68
2021/11/09 02:18:08;;;;;;;1.42;1.10;;;13.50;79.40;;;;;;5134723;27;20126;-68
2021/11/09 02:20:34;;;;;;;2.08;1.20;;;13.50;79.50;;;;;;5134751;27;20437;-68
2021/11/09 02:23:00;;;;;;;1.98;1.45;;;13.50;79.40;;;;;;5115740;27;20047;-68
2021/11/09 02:25:30;;;;;;;1.42;1.33;;;13.50;79.40;;;;;;5134759;27;20050;-68
2021/11/09 02:27:57;;;;;;;2.35;1.48;;;13.50;79.40;;;;;;5134272;27;20047;-69
2021/11/09 02:30:24;;;;;;;2.83;1.55;;;13.50;79.40;;;;;;5134660;27;20050;-66
2021/11/09 02:32:52;;;;;;;2.00;1.40;;;13.50;79.40;;;;;;5134354;27;20055;-69
2021/11/09 02:35:20;;;;;;;1.38;1.25;;;13.50;79.40;;;;;;5134567;27;20368;-68
2021/11/09 02:37:46;;;;;;;1.95;1.40;;;13.40;79.40;;;;;;5134641;27;20047;-69
2021/11/09 02:40:12;;;;;;;1.67;1.10;;;13.40;79.30;;;;;;5115473;27;20504;-69
2021/11/09 02:42:44;;;;;;;2.25;1.35;;;13.50;79.40;;;;;;5134460;27;20448;-67
2021/11/09 02:45:15;;;;;;;2.47;1.50;;;13.60;79.50;;;;;;5134759;27;20035;-68
2021/11/09 02:47:52;;;;;;;1.92;1.27;;;13.50;79.40;;;;;;5134051;27;20104;-66
2021/11/09 02:50:21;;;;;;;2.17;1.30;;;13.50;79.40;;;;;;5116036;27;20055;-65
2021/11/09 02:52:56;;;;;;;1.83;1.27;;;13.40;79.30;;;;;;5115980;27;20043;-67
2021/11/09 02:55:29;;;;;;;2.25;1.70;;;13.50;79.40;;;;;;5134666;27;20043;-65
2021/11/09 02:58:04;;;;;;;1.63;1.20;;;13.50;79.40;;;;;;5134633;27;20050;-66
2021/11/09 03:00:35;;;;;;;2.50;1.77;;;13.50;79.40;;;;;;5134093;27;20084;-67
2021/11/09 03:03:06;;;;;;;1.70;1.45;;;13.50;79.40;;;;;;5133691;27;20043;-62
2021/11/09 03:08:31;;;;;;;3.13;1.20;;;13.50;79.40;;;;;;5070529;28;20122;-68
2021/11/09 03:10:58;;;;;;;1.27;1.17;;;13.40;79.30;;;;;;5064610;28;20057;-59
2021/11/09 03:13:24;;;;;;;1.75;1.23;;;13.50;79.40;;;;;;5050411;28;20528;-58
2021/11/09 03:15:51;;;;;;;2.20;1.30;;;13.50;79.40;;;;;;5050442;28;20052;-61
2021/11/09 03:18:21;;;;;;;1.75;1.40;;;13.50;79.40;;;;;;5050100;28;20052;-65
2021/11/09 03:45:07;;;;;;;1.63;1.30;;;13.40;79.30;;;;;;5067231;28;20083;-68
2021/11/09 03:47:37;;;;;;;1.50;1.40;;;13.50;79.40;;;;;;5092715;28;20055;-67
2021/11/09 03:50:04;;;;;;;3.50;1.38;;;13.50;79.40;;;;;;5090652;28;20492;-69
2021/11/09 03:52:38;;;;;;;2.13;1.42;;;13.50;79.40;;;;;;5092285;28;20500;-63
2021/11/09 03:55:05;;;;;;;2.40;1.50;;;13.50;79.40;;;;;;5109574;28;20565;-67
2021/11/09 03:57:36;;;;;;;1.83;1.40;;;13.50;79.40;;;;;;5112624;28;20083;-58
2021/11/09 04:05:12;;;;;;;2.33;1.20;;;13.50;79.40;;;;;;5112452;28;20086;-65
2021/11/09 04:07:56;;;;;;;3.00;1.40;;;13.50;79.40;;;;;;5111119;28;20059;-62
2021/11/09 04:10:32;;;;;;;1.38;1.13;;;13.40;79.30;;;;;;5112610;28;20040;-69
2021/11/09 04:13:21;;;;;;;1.30;1.20;;;13.40;79.30;;;;;;5112783;28;20430;-68
2021/11/09 04:23:58;;;;;;;1.60;1.50;;;13.40;79.40;;;;;;5111650;28;20514;-60
2021/11/09 05:09:09;;;;;;;1.92;1.73;;;13.40;79.40;;;;;;5072399;28;20084;-61
2021/11/09 05:11:38;;;;;;;2.40;1.50;;;13.40;79.40;;;;;;5055730;28;20493;-65
2021/11/09 05:14:07;;;;;;;2.92;1.67;;;13.40;79.40;;;;;;5072714;28;20187;-68
2021/11/09 05:16:33;;;;;;;1.85;1.50;;;13.40;79.40;;;;;;5072579;28;20519;-67
2021/11/09 05:18:59;;;;;;;3.85;1.60;;;13.30;79.30;;;;;;5072192;28;20053;-65
2021/11/09 05:21:25;;;;;;;2.55;1.55;;;13.40;79.40;;;;;;5072698;28;20059;-65
2021/11/09 05:23:50;;;;;;;2.10;1.60;;;13.30;79.30;;;;;;5072553;28;20045;-69
2021/11/09 05:26:16;;;;;;;3.50;1.40;;;13.40;79.30;;;;;;5072004;28;20059;-65
2021/11/09 05:28:42;;;;;;;1.42;1.20;;;13.40;79.40;;;;;;5072110;28;20044;-64
2021/11/09 05:31:08;;;;;;;1.45;1.20;;;13.40;79.40;;;;;;5088440;28;20060;-65
2021/11/09 05:33:34;;;;;;;2.53;1.60;;;13.40;79.40;;;;;;5119796;27;20055;-67
2021/11/09 05:36:01;;;;;;;3.22;1.60;;;13.40;79.40;;;;;;5135911;27;20050;-68
2021/11/09 05:38:41;;;;;;;3.10;1.58;;;13.50;79.40;;;;;;5135718;27;20088;-66
2021/11/09 05:41:09;;;;;;;3.03;1.65;;;13.40;79.40;;;;;;5135027;27;20048;-69
2021/11/09 05:43:35;;;;;;;2.97;1.70;;;13.40;79.40;;;;;;5135522;27;20092;-65
2021/11/09 05:46:00;;;;;;;3.30;1.90;;;13.40;79.40;;;;;;5135740;27;20047;-67
2021/11/09 05:48:26;;;;;;;1.77;1.50;;;13.40;79.30;;;;;;5135157;27;20035;-63
2021/11/09 05:50:52;;;;;;;2.95;1.70;;;13.40;79.40;;;;;;5135285;27;20100;-67
2021/11/09 05:53:17;;;;;;;2.67;1.48;;;13.40;79.40;;;;;;5116589;27;20466;-67
2021/11/09 05:55:43;;;;;;;2.38;1.60;;;13.40;79.30;;;;;;5135337;27;20406;-68
2021/11/09 05:58:09;;;;;;;3.45;1.75;;;13.40;79.30;;;;;;5134736;27;20035;-67
2021/11/09 06:00:34;;;;;;;2.58;1.60;;;13.40;80.00;;;;;;5134784;27;20444;-68
2021/11/09 06:03:00;;;;;;;1.77;1.30;;;13.40;80.00;;;;;;5135245;27;20039;-67
2021/11/09 06:05:26;;;;;;;3.08;1.90;;;13.40;79.30;;;;;;5116977;27;20043;-68
2021/11/09 06:07:52;;;;;;;2.15;1.60;;;13.40;79.30;;;;;;5135390;27;20034;-68
2021/11/09 06:10:20;;;;;;;2.22;1.35;;;13.40;79.40;;;;;;5135342;27;20035;-66
2021/11/09 06:12:46;;;;;;;3.33;1.70;;;13.40;79.30;;;;;;5134128;27;20183;-68
2021/11/09 06:15:12;;;;;;;2.92;1.73;;;13.40;79.30;;;;;;5134815;27;20076;-60
2021/11/09 06:17:38;;;;;;;3.50;1.80;;;13.40;79.40;;;;;;5134425;27;20508;-59
2021/11/09 06:20:05;;;;;;;2.85;1.80;;;13.40;79.40;;;;;;5099425;27;20147;-68
2021/11/09 06:22:31;;;;;;;2.30;1.50;;;13.40;79.40;;;;;;5134622;27;20084;-64
2021/11/09 06:24:57;;;;;;;2.83;1.95;;;13.30;79.30;;;;;;5134991;27;20043;-66
2021/11/09 06:27:23;;;;;;;2.75;1.60;;;13.40;79.40;;;;;;5115908;27;20051;-66
2021/11/09 06:29:51;;;;;;;3.65;2.00;;;13.30;79.30;;;;;;5133886;27;20141;-68
2021/11/09 06:32:17;;;;;;;1.83;1.40;;;13.40;79.40;;;;;;5133985;27;20054;-68
2021/11/09 06:34:43;;;;;;;2.28;1.90;;;13.40;79.40;;;;;;5133337;27;20062;-68
2021/11/09 06:37:10;;;;;;;2.67;1.42;;;13.40;79.30;;;;;;5133202;27;20118;-62
2021/11/09 06:39:36;;;;;;;2.78;1.60;;;13.40;79.40;;;;;;5133767;27;20031;-68
2021/11/09 06:42:02;;;;;;;2.80;1.65;;;13.40;79.40;;;;;;5133707;27;20067;-59
2021/11/09 06:44:28;;;;;;;1.65;1.45;;;13.40;79.40;;;;;;5133468;27;20070;-60
2021/11/09 06:46:54;;;;;;;4.22;2.05;;;13.50;79.40;;;;;;5134160;27;20399;-57
2021/11/09 06:49:19;;;;;;;3.80;2.10;;;13.40;79.30;;;;;;5134684;27;20349;-57
2021/11/09 06:51:45;;;;;;;3.55;1.90;;;13.30;79.30;;;;;;5134408;27;20105;-59
2021/11/09 06:54:12;;;;;;;2.78;1.88;;;13.40;79.30;;;;;;5098426;27;20059;-67
2021/11/09 06:56:38;;;;;;;3.47;1.73;;;13.30;79.30;;;;;;5134241;27;20095;-58
2021/11/09 06:59:05;;;;;;;3.30;1.90;;;13.40;79.30;;;;;;5134309;27;20116;-60
2021/11/09 07:01:31;;;;;;;3.35;1.88;;;13.40;79.30;;;;;;5133516;27;20121;-61
2021/11/09 07:03:57;;;;;;;3.30;1.85;;;13.30;79.90;;;;;;5134626;27;20115;-62
2021/11/09 07:06:24;;;;;;;4.32;2.17;;;13.30;79.30;;;;;;5133918;27;20507;-58
2021/11/09 07:08:50;;;;;;;4.32;2.10;;;13.40;79.30;;;;;;5134309;27;20114;-57
2021/11/09 07:11:16;;;;;;;3.25;2.33;;;13.30;79.30;;;;;;5133492;27;20411;-59
2021/11/09 07:13:44;;;;;;;3.00;1.83;;;13.30;79.30;;;;;;5134024;27;20043;-67
2021/11/09 07:16:11;;;;;;;4.60;1.98;;;13.30;79.30;;;;;;5132851;27;20039;-61
2021/11/09 07:18:37;;;;;;;3.10;1.98;;;13.30;79.30;;;;;;5133555;27;20123;-59
2021/11/09 07:21:03;;;;;;;3.50;1.50;;;13.30;79.30;;;;;;5134024;27;20072;-67
2021/11/09 07:23:29;;;;;;;3.08;1.58;;;13.30;79.30;;;;;;5133670;27;20049;-59
2021/11/09 07:25:55;;;;;;;3.00;2.05;;;13.30;79.90;;;;;;5114749;27;20040;-64
2021/11/09 07:28:20;;;;;;;2.28;1.75;;;13.30;79.30;;;;;;5133631;27;20043;-63
2021/11/09 07:30:57;;;;;;;2.13;1.63;;;13.20;79.20;;;;;;5133567;27;20141;-58
2021/11/09 07:33:23;;;;;;;3.00;2.10;;;13.30;79.30;;;;;;5132774;27;20463;-58
2021/11/09 07:35:48;;;;;;;2.35;2.15;;;13.30;79.30;;;;;;5133659;27;20044;-64
2021/11/09 07:38:15;;;;;;;4.88;2.10;;;13.40;79.30;;;;;;5114545;27;20078;-61
2021/11/09 07:40:42;;;;;;;2.20;1.70;;;13.30;79.30;;;;;;5133242;27;20044;-57
2021/11/09 07:43:07;;;;;;;3.53;1.73;;;13.30;79.30;;;;;;5133482;27;20063;-57
2021/11/09 07:45:35;;;;;;;3.13;1.70;;;13.30;79.30;;;;;;5133593;27;20050;-58
2021/11/09 07:48:01;;;;;;;3.20;2.05;;;13.30;79.30;;;;;;5132139;27;20735;-57
2021/11/09 07:50:29;;;;;;;2.95;1.95;;;13.30;79.30;;;;;;5114959;27;20479;-57
2021/11/09 07:52:58;;;;;;;4.18;2.40;;;13.30;79.30;;;;;;5133105;27;20117;-59
2021/11/09 07:55:27;;;;;;;3.70;2.28;;;13.30;79.30;;;;;;5114839;28;20129;-57
2021/11/09 07:57:58;;;;;;;3.92;1.90;;;13.40;79.30;;;;;;5132801;27;20126;-62
2021/11/09 08:00:34;;;;;;;3.78;1.85;;;13.30;80.00;;;;;;5132888;27;20128;-62
2021/11/09 08:03:14;;;;;;;4.18;2.45;;;13.30;79.30;;;;;;5114457;28;20050;-67
2021/11/09 08:05:57;;;;;;;3.65;1.88;;;13.30;79.30;;;;;;5132774;28;20069;-65
2021/11/09 08:09:06;;;;;;;3.85;1.95;;;13.30;79.30;;;;;;5131566;28;20559;-65
2021/11/09 08:11:15;;;;;;;3.05;1.80;;;13.30;79.30;;;;;;5129690;28;20055;-64
2021/11/09 08:13:41;;;;;;;3.90;2.00;;;13.30;79.30;;;;;;5135333;27;20043;-63
2021/11/09 08:16:06;;;;;;;2.90;1.90;;;13.30;79.30;;;;;;5118121;27;20043;-65
2021/11/09 08:18:32;;;;;;;3.28;2.17;;;13.30;79.40;;;;;;5137066;27;20039;-57
2021/11/09 08:20:59;;;;;;;2.97;2.00;;;13.30;79.30;;;;;;5136826;27;20071;-62
2021/11/09 08:23:24;;;;;;;3.22;1.88;;;13.30;79.30;;;;;;5118236;27;20108;-61
2021/11/09 08:25:50;;;;;;;3.30;2.05;;;13.30;79.30;;;;;;5137178;27;20042;-60
2021/11/09 08:28:17;;;;;;;2.70;1.70;;;13.30;79.30;;;;;;5136934;27;20039;-58
2021/11/09 08:30:43;;;;;;;4.32;2.15;;;13.30;79.30;;;;;;5137276;27;20145;-70
2021/11/09 08:33:09;;;;;;;4.20;2.33;;;13.30;79.30;;;;;;5136662;27;20098;-69
2021/11/09 08:35:36;;;;;;;2.00;1.48;;;13.30;79.30;;;;;;5135868;27;20491;-69
2021/11/09 08:38:02;;;;;;;4.18;2.05;;;13.30;79.30;;;;;;5136402;27;20047;-54
2021/11/09 08:40:28;;;;;;;3.47;1.80;;;13.30;79.40;;;;;;5125975;27;20039;-53
2021/11/09 08:42:55;;;;;;;3.28;1.58;;;13.10;79.20;;;;;;5136625;27;20092;-59
2021/11/09 08:45:34;;;;;;;2.08;1.65;;;13.30;79.40;;;;;;5140164;27;20050;-54
2021/11/09 08:48:15;;;;;;;3.15;1.88;;;13.30;79.40;;;;;;5118149;27;20135;-60
2021/11/09 08:50:41;;;;;;;3.45;2.05;;;13.30;79.40;;;;;;5134861;27;20043;-57
2021/11/09 08:53:12;;;;;;;3.25;2.22;;;13.30;79.40;;;;;;5135730;27;20388;-64
2021/11/09 09:04:28;;;;;;;3.53;1.67;;;13.30;79.40;;;;;;5136226;27;20122;-59
2021/11/09 09:06:22;;;;;;;2.10;1.65;;;13.20;79.30;;;;;;5106369;27;20050;-58
2021/11/09 09:08:48;;;;;;;2.58;1.70;;;13.30;79.40;;;;;;5135969;27;20055;-57
2021/11/09 09:11:14;;;;;;;4.03;2.15;;;13.30;79.40;;;;;;5136934;27;20043;-60
2021/11/09 09:13:39;;;;;;;2.47;2.28;;;13.30;79.40;;;;;;5137071;27;20391;-59
2021/11/09 09:16:06;;;;;;;2.95;1.77;;;13.30;79.40;;;;;;5136252;27;20177;-57
2021/11/09 09:18:33;;;;;;;2.85;2.00;;;13.30;79.40;;;;;;5135971;27;20051;-53
2021/11/09 09:21:09;;;;;;;3.38;1.88;;;13.20;79.30;;;;;;5136400;27;20088;-58
2021/11/09 09:23:41;;;;;;;3.42;2.05;;;13.20;80.00;;;;;;5135372;27;20403;-59
2021/11/09 09:55:51;;;;;;;3.70;2.10;;;13.30;79.40;;;;;;5151693;27;20126;-56
2021/11/09 09:58:17;;;;;;;3.33;1.88;;;13.30;79.40;;;;;;5133463;27;20085;-58
2021/11/09 10:00:43;;;;;;;2.72;2.22;;;13.30;79.40;;;;;;5133664;27;20144;-61
2021/11/09 10:03:09;;;;;;;3.70;1.90;;;13.20;79.40;;;;;;5130796;27;20659;-59
2021/11/09 10:05:38;;;;;;;2.85;1.80;;;13.30;79.40;;;;;;5131463;27;20130;-55
2021/11/09 10:08:22;;;;;;;2.95;1.95;;;13.30;79.50;;;;;;5130914;27;20043;-57
2021/11/09 10:10:48;;;;;;;2.80;1.50;;;13.30;79.30;;;;;;5130660;27;20125;-61
2021/11/09 10:13:23;;;;;;;2.33;1.70;;;13.30;79.40;;;;;;5130866;27;20134;-56
2021/11/09 10:15:52;;;;;;;2.55;1.80;;;13.30;79.40;;;;;;5130912;27;20439;-54
2021/11/09 10:18:20;;;;;;;4.05;2.05;;;13.30;79.40;;;;;;5123269;27;20039;-62
2021/11/09 10:20:50;;;;;;;3.00;1.60;;;13.30;79.40;;;;;;5130703;27;20087;-56
2021/11/09 10:23:20;;;;;;;2.63;1.90;;;13.30;79.40;;;;;;5141010;27;20035;-62
2021/11/09 10:25:49;;;;;;;2.58;1.83;;;13.30;79.40;;;;;;5144048;27;20501;-56
2021/11/09 10:28:18;;;;;;;4.15;2.17;;;13.30;79.40;;;;;;5130659;27;20065;-57
2021/11/09 10:30:48;;;;;;;2.22;1.63;;;13.30;79.30;;;;;;5130697;27;20091;-57
2021/11/09 10:33:16;;;;;;;3.83;2.20;;;13.30;79.40;;;;;;5134383;27;20063;-59
2021/11/09 10:35:43;;;;;;;2.15;1.77;;;13.30;79.30;;;;;;5127020;27;20046;-58
2021/11/09 10:38:10;;;;;;;9.45;4.80;;;13.30;79.30;;;;;;5136095;27;20168;-63
2021/11/09 10:40:50;;;;;;;7.13;3.95;;;13.30;78.90;;;;;;5135987;27;20042;-62
2021/11/09 10:43:19;;;;;;;7.32;4.40;;;13.20;78.80;;;;;;5154498;27;20038;-61
2021/11/09 10:45:45;;;;;;;8.68;3.88;;;13.20;79.00;;;;;;5118572;27;20053;-63
2021/11/09 10:48:16;;;;;;;12.10;5.63;;;13.20;79.00;;;;;;5154572;27;20046;-63
2021/11/09 10:50:47;;;;;;;14.10;5.30;;;13.10;79.00;;;;;;5154276;27;20045;-63
2021/11/09 11:06:21;;;;;;;12.30;5.97;;;13.10;79.20;;;;;;5112994;28;20047;-64
2021/11/09 11:09:12;;;;;;;11.07;5.60;;;13.10;79.10;;;;;;5112695;28;20043;-62
2021/11/09 11:11:44;;;;;;;9.10;5.32;;;13.10;79.00;;;;;;5118230;27;20498;-63
2021/11/09 11:14:10;;;;;;;9.38;5.43;;;13.10;79.20;;;;;;5135418;27;20047;-64
2021/11/09 11:16:42;;;;;;;11.60;6.32;;;13.10;79.20;;;;;;5154847;27;20485;-61
2021/11/09 11:19:09;;;;;;;12.35;6.60;;;13.10;79.10;;;;;;5154874;27;20050;-61
2021/11/09 11:21:35;;;;;;;12.52;5.63;;;13.00;79.10;;;;;;5154966;27;20039;-62
2021/11/09 11:24:01;;;;;;;8.05;5.72;;;13.00;79.20;;;;;;5135958;27;20125;-61
2021/11/09 11:26:26;;;;;;;12.23;6.00;;;13.00;79.20;;;;;;5130604;27;20122;-60
2021/11/09 11:28:54;;;;;;;11.02;5.53;;;13.00;79.20;;;;;;5115890;27;20043;-61
2021/11/09 11:31:21;;;;;;;11.75;5.88;;;13.00;79.20;;;;;;5138269;27;20035;-60
2021/11/09 11:33:48;;;;;;;10.45;6.10;;;13.00;79.30;;;;;;5123230;27;20417;-59
2021/11/09 11:36:15;;;;;;;11.20;5.75;;;13.00;79.30;;;;;;5133270;27;20126;-59
2021/11/09 11:38:45;;;;;;;10.70;5.30;;;13.00;79.30;;;;;;5132667;27;20043;-61
2021/11/09 11:41:11;;;;;;;10.52;5.68;;;13.00;79.30;;;;;;5133154;27;20043;-61
2021/11/09 11:43:42;;;;;;;10.13;5.78;;;13.10;79.40;;;;;;5138482;27;20045;-59
2021/11/09 11:46:16;;;;;;;12.60;5.20;;;13.00;79.30;;;;;;5143074;27;20078;-59
2021/11/09 11:48:56;;;;;;;12.55;5.90;;;13.00;79.30;;;;;;5132589;27;20065;-61
2021/11/09 11:51:22;;;;;;;11.95;5.80;;;13.00;79.30;;;;;;5114317;27;20079;-61
2021/11/09 11:53:53;;;;;;;11.10;6.65;;;13.00;79.40;;;;;;5132679;27;20085;-61
2021/11/09 11:56:19;;;;;;;7.28;4.95;;;13.00;79.40;;;;;;5114376;27;20495;-59
2021/11/09 11:58:45;;;;;;;11.05;5.97;;;13.00;79.40;;;;;;5114100;27;20134;-60
2021/11/09 12:01:11;;;;;;;11.18;5.57;;;13.00;79.40;;;;;;5113640;28;20070;-61
2021/11/09 12:03:38;;;;;;;12.30;5.85;;;13.10;79.50;;;;;;5113978;28;20043;-59
2021/11/09 12:06:19;;;;;;;11.60;5.80;;;13.00;79.40;;;;;;5132801;28;20054;-60
2021/11/09 12:08:49;;;;;;;11.18;5.38;;;13.10;79.50;;;;;;5113251;28;20035;-60
2021/11/09 12:11:24;;;;;;;12.45;5.82;;;13.00;79.50;;;;;;5132616;28;20486;-62
2021/11/09 12:14:00;;;;;;;12.32;6.15;;;13.10;79.60;;;;;;5114137;28;20079;-61
2021/11/09 12:16:53;;;;;;;12.43;5.70;;;13.00;79.60;;;;;;5132356;28;20042;-61
2021/11/09 12:19:34;;;;;;;9.13;5.63;;;13.10;79.60;;;;;;5132833;28;20043;-61
2021/11/09 12:22:21;;;;;;;11.20;5.63;;;13.00;79.50;;;;;;5132763;28;20077;-61
2021/11/09 12:24:58;;;;;;;11.25;5.85;;;13.10;79.60;;;;;;5130478;28;20126;-62
2021/11/09 12:27:47;;;;;;;10.45;6.22;;;13.10;79.60;;;;;;5133223;28;20035;-61
2021/11/09 12:30:34;;;;;;;11.75;5.88;;;13.00;79.50;;;;;;5132536;28;20043;-62
2021/11/09 12:33:10;;;;;;;13.80;5.78;;;13.00;79.60;;;;;;5130735;28;20047;-61
2021/11/09 12:35:36;;;;;;;11.82;6.18;;;13.10;79.60;;;;;;5132575;28;20043;-62
2021/11/09 12:38:01;;;;;;;11.80;6.32;;;13.00;79.60;;;;;;5132453;28;20114;-62
2021/11/09 12:40:31;;;;;;;21.40;7.38;;;13.10;79.70;;;;;;5132409;28;20114;-64
2021/11/09 12:43:09;;;;;;;14.35;7.82;;;13.00;79.40;;;;;;5114632;28;20054;-65
2021/11/09 12:45:37;;;;;;;11.50;6.22;;;13.00;79.60;;;;;;5132920;28;20526;-64
2021/11/09 12:48:10;;;;;;;16.58;7.47;;;13.00;79.60;;;;;;5132720;28;20047;-67
2021/11/09 12:50:37;;;;;;;17.85;7.38;;;13.00;79.60;;;;;;5133105;28;20122;-65
2021/11/09 12:53:12;;;;;;;13.07;6.47;;;13.00;79.60;;;;;;5132864;28;20043;-64
2021/11/09 12:55:39;;;;;;;17.02;6.32;;;13.10;79.60;;;;;;5133092;28;20045;-64
2021/11/09 12:58:21;;;;;;;14.00;6.30;;;13.10;79.50;;;;;;5132812;27;20075;-62
2021/11/09 13:01:17;;;;;;;12.25;6.10;;;13.10;79.50;;;;;;5136733;27;20043;-65
2021/11/09 13:04:10;;;;;;;11.80;6.03;;;13.10;79.40;;;;;;5136062;27;20047;-65
2021/11/09 13:09:24;;;;;;;14.55;5.90;;;13.20;79.50;;;;;;5136958;27;20050;-66
2021/11/09 13:11:58;;;;;;;12.32;6.15;;;13.20;79.40;;;;;;5136452;27;20122;-65
2021/11/09 13:14:35;;;;;;;11.20;5.13;;;13.20;79.40;;;;;;5135506;27;20548;-63
2021/11/09 13:17:19;;;;;;;13.13;5.97;;;13.20;79.30;;;;;;5136601;27;20035;-63
2021/11/09 13:19:48;;;;;;;9.88;5.72;;;13.20;79.30;;;;;;5135954;27;20148;-65
2021/11/09 13:22:17;;;;;;;12.95;6.03;;;13.20;79.30;;;;;;5118059;27;20042;-66
2021/11/09 13:24:56;;;;;;;9.18;5.60;;;13.20;79.30;;;;;;5118194;27;20047;-65
2021/11/09 13:27:38;;;;;;;9.90;5.15;;;13.30;79.30;;;;;;5136330;27;20068;-66
2021/11/09 13:30:15;;;;;;;12.13;5.95;;;13.30;79.30;;;;;;5117918;27;20089;-65
2021/11/09 13:32:44;;;;;;;10.10;5.35;;;13.30;79.20;;;;;;5136475;27;20076;-65
2021/11/09 13:35:18;;;;;;;12.55;5.75;;;13.30;79.30;;;;;;5135657;27;20055;-63
2021/11/09 13:37:45;;;;;;;8.00;5.15;;;13.30;79.20;;;;;;5117721;27;20054;-65
2021/11/09 13:40:11;;;;;;;8.93;4.90;;;13.30;79.30;;;;;;5117633;27;20043;-62
2021/11/09 13:42:38;;;;;;;9.95;4.88;;;13.30;79.20;;;;;;5136002;27;20380;-65
2021/11/09 13:45:14;;;;;;;7.15;4.38;;;13.20;79.10;;;;;;5136068;27;20043;-65
2021/11/09 13:47:40;;;;;;;11.15;5.25;;;13.30;79.20;;;;;;5136062;27;20039;-63
2021/11/09 13:50:11;;;;;;;7.82;4.60;;;13.30;79.20;;;;;;5135817;27;20043;-65
2021/11/09 13:52:49;;;;;;;8.50;4.13;;;13.30;79.10;;;;;;5116985;27;20122;-64
2021/11/09 13:55:16;;;;;;;6.47;4.28;;;13.30;79.10;;;;;;5135699;27;20486;-66
2021/11/09 13:57:43;;;;;;;9.88;4.78;;;13.30;79.10;;;;;;5135401;27;20043;-65
2021/11/09 14:00:48;;;;;;;9.30;4.32;;;13.30;79.20;;;;;;5135195;27;20043;-65
2021/11/09 14:03:29;;;;;;;6.82;4.75;;;13.30;79.10;;;;;;5135596;27;20082;-66
2021/11/09 14:16:54;;;;;;;7.10;4.45;;;13.40;79.80;;;;;;5135121;27;20545;-65
2021/11/09 14:19:33;;;;;;;6.70;4.25;;;13.40;79.10;;;;;;5134041;27;20574;-64
2021/11/09 14:22:15;;;;;;;6.10;3.60;;;13.40;79.10;;;;;;5134957;27;20035;-63
2021/11/09 14:24:54;;;;;;;6.72;4.03;;;13.40;79.10;;;;;;5135338;27;20375;-62
2021/11/09 14:27:29;;;;;;;6.93;4.05;;;13.30;79.10;;;;;;5116284;27;20045;-63
2021/11/09 14:29:57;;;;;;;8.63;3.90;;;13.40;79.80;;;;;;5134813;27;20066;-62
2021/11/09 14:32:32;;;;;;;7.65;3.75;;;13.30;79.10;;;;;;5134932;27;20045;-62
2021/11/09 14:35:14;;;;;;;8.55;4.30;;;13.40;79.10;;;;;;5134678;27;20119;-63
2021/11/09 14:40:57;;;;;;;7.35;4.25;;;13.40;79.10;;;;;;5134431;27;20130;-61
2021/11/09 14:43:27;;;;;;;6.50;3.83;;;13.40;79.10;;;;;;5134900;27;20043;-63
2021/11/09 14:46:05;;;;;;;9.05;4.07;;;13.40;79.10;;;;;;5134574;27;20490;-63
2021/11/09 14:51:17;;;;;;;6.70;3.67;;;13.40;79.10;;;;;;5134688;27;20120;-62
2021/11/09 14:56:31;;;;;;;4.78;3.50;;;13.50;79.10;;;;;;5134466;27;20479;-61
2021/11/09 14:59:24;;;;;;;5.80;3.50;;;13.40;79.10;;;;;;5134266;27;20043;-63
2021/11/09 15:02:02;;;;;;;7.80;3.97;;;13.40;79.10;;;;;;5115626;27;20115;-62
2021/11/09 15:04:41;;;;;;;6.05;3.58;;;13.40;79.10;;;;;;5150248;27;20534;-63
2021/11/09 15:32:08;;;;;;;5.97;3.28;;;13.40;79.10;;;;;;5133840;27;20138;-64
2021/11/09 15:34:48;;;;;;;6.53;3.65;;;13.40;79.10;;;;;;5114988;27;20094;-65
2021/11/09 15:39:48;;;;;;;4.65;2.88;;;13.40;79.10;;;;;;5115552;27;20062;-64
2021/11/09 15:42:16;;;;;;;6.45;3.20;;;13.40;79.20;;;;;;5133682;27;20035;-65
2021/11/09 15:44:42;;;;;;;5.82;3.30;;;13.40;79.10;;;;;;5133681;27;20058;-63
2021/11/09 15:47:08;;;;;;;4.72;3.10;;;13.40;79.10;;;;;;5114964;27;20039;-66
2021/11/09 15:49:34;;;;;;;5.18;3.28;;;13.40;79.10;;;;;;5133589;27;20043;-63
2021/11/09 15:52:00;;;;;;;4.60;3.13;;;13.40;79.10;;;;;;5114963;27;20054;-65
2021/11/09 15:54:26;;;;;;;4.25;2.90;;;13.40;79.10;;;;;;5133951;27;20047;-64
2021/11/09 15:56:51;;;;;;;4.38;3.17;;;13.40;79.10;;;;;;5132980;27;20393;-63
2021/11/09 15:59:17;;;;;;;4.13;2.85;;;13.50;79.10;;;;;;5133439;27;20082;-66
2021/11/09 16:01:43;;;;;;;3.63;2.42;;;13.40;79.00;;;;;;5133506;27;20047;-63